createdAt,value
2022-11-22T00:00:43.566Z,16.20
2022-11-22T00:03:10.728Z,16.30
2022-11-22T00:05:37.916Z,16.20
2022-11-22T00:08:05.685Z,16.30
2022-11-22T00:10:33.096Z,16.20
2022-11-22T00:13:00.638Z,16.30
2022-11-22T00:15:27.760Z,16.30
2022-11-22T00:17:54.844Z,16.20
2022-11-22T00:20:21.934Z,16.30
2022-11-22T00:22:49.015Z,16.30
2022-11-22T00:25:16.208Z,16.30
2022-11-22T00:27:43.581Z,16.30
2022-11-22T00:30:10.965Z,16.20
2022-11-22T00:32:38.028Z,16.20
2022-11-22T00:35:05.516Z,16.20
2022-11-22T00:37:32.637Z,16.10
2022-11-22T00:39:59.705Z,16.10
2022-11-22T00:42:26.741Z,16.10
2022-11-22T00:44:53.781Z,16.10
2022-11-22T00:47:20.823Z,16.10
2022-11-22T00:49:47.870Z,16.10
2022-11-22T00:52:14.979Z,16.10
2022-11-22T00:54:42.118Z,16.10
2022-11-22T00:57:09.181Z,16.10
2022-11-22T00:59:36.218Z,16.10
2022-11-22T01:02:03.277Z,16.10
2022-11-22T01:04:30.333Z,16.20
2022-11-22T01:06:57.386Z,16.20
2022-11-22T01:09:24.785Z,16.20
2022-11-22T01:11:52.006Z,16.20
2022-11-22T01:14:19.871Z,16.20
2022-11-22T01:16:47.691Z,16.30
2022-11-22T01:19:15.313Z,16.30
2022-11-22T01:21:42.427Z,16.30
2022-11-22T01:24:09.678Z,16.30
2022-11-22T01:26:36.890Z,16.30
2022-11-22T01:29:04.498Z,16.30
2022-11-22T01:31:31.886Z,16.20
2022-11-22T01:33:59.404Z,16.20
2022-11-22T01:36:27.375Z,16.20
2022-11-22T01:38:54.630Z,16.20
2022-11-22T01:41:21.751Z,16.20
2022-11-22T01:43:50.518Z,16.10
2022-11-22T01:46:32.382Z,16.10
2022-11-22T01:49:06.735Z,16.10
2022-11-22T01:51:46.454Z,16.10
2022-11-22T01:54:17.839Z,16.20
2022-11-22T01:56:50.222Z,16.20
2022-11-22T01:59:21.067Z,16.30
2022-11-22T02:01:48.674Z,16.30
2022-11-22T02:04:17.954Z,16.20
2022-11-22T02:06:57.963Z,16.30
2022-11-22T02:09:26.834Z,16.20
2022-11-22T02:11:57.242Z,16.20
2022-11-22T02:14:26.669Z,16.20
2022-11-22T02:16:54.359Z,16.20
2022-11-22T02:19:39.858Z,16.20
2022-11-22T02:22:18.548Z,16.30
2022-11-22T02:25:08.387Z,16.30
2022-11-22T02:27:35.465Z,16.30
2022-11-22T02:30:02.653Z,16.40
2022-11-22T02:32:29.912Z,16.40
2022-11-22T02:34:56.956Z,16.40
2022-11-22T02:37:28.593Z,16.40
2022-11-22T02:39:59.756Z,16.40
2022-11-22T02:42:29.017Z,16.40
2022-11-22T02:44:56.220Z,16.30
2022-11-22T02:47:23.268Z,16.30
2022-11-22T02:49:53.147Z,16.30
2022-11-22T02:52:20.284Z,16.30
2022-11-22T02:54:47.359Z,16.30
2022-11-22T02:57:14.424Z,16.30
2022-11-22T02:59:41.531Z,16.30
2022-11-22T03:02:08.613Z,16.30
2022-11-22T03:04:35.684Z,16.20
2022-11-22T03:07:02.950Z,16.20
2022-11-22T03:09:33.676Z,16.20
2022-11-22T03:12:00.888Z,16.20
2022-11-22T03:14:28.292Z,16.20
2022-11-22T03:16:55.428Z,16.20
2022-11-22T03:19:22.577Z,16.20
2022-11-22T03:21:49.810Z,16.20
2022-11-22T03:24:17.256Z,16.20
2022-11-22T03:26:50.922Z,16.20
2022-11-22T03:29:18.394Z,16.20
2022-11-22T03:31:45.436Z,16.20
2022-11-22T03:34:12.954Z,16.20
2022-11-22T03:36:39.977Z,16.20
2022-11-22T03:39:07.157Z,16.20
2022-11-22T03:41:34.252Z,16.20
2022-11-22T03:44:01.314Z,16.20
2022-11-22T03:46:28.397Z,16.20
2022-11-22T03:48:55.482Z,16.20
2022-11-22T03:51:22.614Z,16.20
2022-11-22T03:53:49.748Z,16.20
2022-11-22T03:56:16.793Z,16.20
2022-11-22T03:58:43.841Z,16.20
2022-11-22T04:01:16.342Z,16.20
2022-11-22T04:03:44.004Z,16.20
2022-11-22T04:06:11.151Z,16.30
2022-11-22T04:08:38.253Z,16.30
2022-11-22T04:11:05.306Z,16.30
2022-11-22T04:13:51.134Z,16.40
2022-11-22T04:16:18.170Z,16.40
2022-11-22T04:18:45.250Z,16.40
2022-11-22T04:21:30.850Z,16.30
2022-11-22T04:24:16.501Z,16.40
2022-11-22T04:26:43.562Z,16.40
2022-11-22T04:29:10.812Z,16.40
2022-11-22T04:31:56.926Z,16.40
2022-11-22T04:34:24.047Z,16.40
2022-11-22T04:36:51.263Z,16.40
2022-11-22T04:39:18.417Z,16.40
2022-11-22T04:41:45.486Z,16.40
2022-11-22T04:44:31.667Z,16.40
2022-11-22T04:46:58.748Z,16.40
2022-11-22T04:49:25.906Z,16.40
2022-11-22T04:52:11.591Z,16.40
2022-11-22T04:54:38.638Z,16.30
2022-11-22T04:57:05.695Z,16.40
2022-11-22T04:59:32.831Z,16.40
2022-11-22T05:02:00.001Z,16.30
2022-11-22T05:04:27.041Z,16.30
2022-11-22T05:06:54.143Z,16.30
2022-11-22T05:09:21.212Z,16.30
2022-11-22T05:11:48.265Z,16.30
2022-11-22T05:14:15.764Z,16.30
2022-11-22T05:16:42.827Z,16.30
2022-11-22T05:19:09.899Z,16.30
2022-11-22T05:21:37.345Z,16.30
2022-11-22T05:24:04.744Z,16.30
2022-11-22T05:26:34.739Z,16.30
2022-11-22T05:29:07.170Z,16.30
2022-11-22T05:31:35.885Z,16.30
2022-11-22T05:34:03.513Z,16.30
2022-11-22T05:36:32.722Z,16.30
2022-11-22T05:39:00.050Z,16.30
2022-11-22T05:41:27.166Z,16.30
2022-11-22T05:43:56.276Z,16.30
2022-11-22T05:46:26.366Z,16.30
2022-11-22T05:48:55.050Z,16.30
2022-11-22T05:51:33.551Z,16.30
2022-11-22T05:54:02.434Z,16.30
2022-11-22T05:56:29.584Z,16.30
2022-11-22T05:58:56.629Z,16.30
2022-11-22T06:01:25.511Z,16.30
2022-11-22T06:03:53.857Z,16.30
2022-11-22T06:06:21.367Z,16.30
2022-11-22T06:08:48.926Z,16.30
2022-11-22T06:11:35.038Z,16.30
2022-11-22T06:14:05.125Z,16.30
2022-11-22T06:16:32.241Z,16.30
2022-11-22T06:18:59.290Z,16.20
2022-11-22T06:21:28.456Z,16.30
2022-11-22T06:23:55.875Z,16.30
2022-11-22T06:26:24.155Z,16.30
2022-11-22T06:28:51.428Z,16.30
2022-11-22T06:31:21.527Z,16.30
2022-11-22T06:33:49.350Z,16.30
2022-11-22T06:36:18.766Z,16.30
2022-11-22T06:38:46.418Z,16.30
2022-11-22T06:41:15.893Z,16.30
2022-11-22T06:43:48.589Z,16.30
2022-11-22T06:46:21.039Z,16.30
2022-11-22T06:48:49.050Z,16.30
2022-11-22T06:51:19.287Z,16.40
2022-11-22T06:53:48.629Z,16.30
2022-11-22T06:56:23.746Z,16.30
2022-11-22T06:58:51.845Z,16.30
2022-11-22T07:01:26.754Z,16.30
2022-11-22T07:03:58.516Z,16.30
2022-11-22T07:06:28.754Z,16.30
2022-11-22T07:08:56.556Z,16.30
2022-11-22T07:11:26.503Z,16.30
2022-11-22T07:13:55.360Z,16.30
2022-11-22T07:16:22.923Z,16.30
2022-11-22T07:18:50.169Z,16.30
2022-11-22T07:21:20.527Z,16.30
2022-11-22T07:23:50.003Z,16.30
2022-11-22T07:26:18.786Z,16.30
2022-11-22T07:28:46.678Z,16.40
2022-11-22T07:31:15.159Z,16.30
2022-11-22T07:33:43.226Z,16.30
2022-11-22T07:36:13.107Z,16.30
2022-11-22T07:38:40.228Z,16.30
2022-11-22T07:41:08.444Z,16.40
2022-11-22T07:43:35.845Z,16.40
2022-11-22T07:46:05.480Z,16.40
2022-11-22T07:48:32.603Z,16.40
2022-11-22T07:51:07.304Z,16.40
2022-11-22T07:53:35.731Z,16.40
2022-11-22T07:56:06.609Z,16.40
2022-11-22T07:58:34.753Z,16.40
2022-11-22T08:01:13.187Z,16.40
2022-11-22T08:03:41.178Z,16.40
2022-11-22T08:06:10.095Z,16.40
2022-11-22T08:08:37.923Z,16.40
2022-11-22T08:11:06.476Z,16.40
2022-11-22T08:13:34.007Z,16.40
2022-11-22T08:16:07.268Z,16.40
2022-11-22T08:18:35.690Z,16.40
2022-11-22T08:21:07.976Z,16.40
2022-11-22T08:23:35.910Z,16.40
2022-11-22T08:26:03.918Z,16.40
2022-11-22T08:28:31.713Z,16.40
2022-11-22T08:31:04.257Z,16.40
2022-11-22T08:33:31.374Z,16.40
2022-11-22T08:35:58.457Z,16.40
2022-11-22T08:38:26.077Z,16.40
2022-11-22T08:40:53.391Z,16.40
2022-11-22T08:43:20.456Z,16.40
2022-11-22T08:45:49.456Z,16.40
2022-11-22T08:48:21.838Z,16.40
2022-11-22T08:50:54.513Z,16.40
2022-11-22T08:53:21.964Z,16.40
2022-11-22T08:55:49.629Z,16.40
2022-11-22T08:58:16.687Z,16.40
2022-11-22T09:00:44.066Z,16.40
2022-11-22T09:03:11.201Z,16.40
2022-11-22T09:08:25.452Z,16.40
2022-11-22T09:10:52.570Z,16.40
2022-11-22T09:13:19.616Z,16.40
2022-11-22T09:15:46.754Z,16.40
2022-11-22T09:18:13.805Z,16.30
2022-11-22T09:20:40.856Z,16.20
2022-11-22T09:23:07.890Z,16.20
2022-11-22T09:25:34.961Z,16.20
2022-11-22T09:28:02.969Z,16.20
2022-11-22T09:30:30.818Z,16.20
2022-11-22T09:32:57.982Z,16.20
2022-11-22T09:35:25.055Z,16.20
2022-11-22T09:37:52.201Z,16.20
2022-11-22T09:40:19.406Z,16.30
2022-11-22T09:43:14.913Z,16.30
2022-11-22T09:45:58.093Z,16.30
2022-11-22T09:48:51.261Z,16.10
2022-11-22T09:51:24.051Z,15.80
2022-11-22T09:54:16.973Z,15.70
2022-11-22T09:56:44.519Z,15.80
2022-11-22T09:59:18.668Z,15.90
2022-11-22T10:02:18.278Z,16.00
2022-11-22T10:05:00.175Z,16.10
2022-11-22T10:07:30.854Z,16.20
2022-11-22T10:10:15.486Z,16.20
2022-11-22T10:13:06.332Z,16.20
2022-11-22T10:15:47.347Z,16.10
2022-11-22T10:18:23.726Z,16.20
2022-11-22T10:20:50.950Z,16.20
2022-11-22T10:23:25.894Z,16.10
2022-11-22T10:26:13.698Z,15.90
2022-11-22T10:28:53.322Z,15.90
2022-11-22T10:31:32.974Z,15.80
2022-11-22T10:34:08.033Z,15.80
2022-11-22T10:36:35.128Z,15.90
2022-11-22T10:39:17.639Z,15.90
2022-11-22T10:42:03.561Z,15.90
2022-11-22T10:45:08.374Z,15.90
2022-11-22T10:48:09.579Z,15.70
2022-11-22T10:51:07.602Z,15.60
2022-11-22T10:54:03.779Z,15.60
2022-11-22T10:56:38.366Z,15.60
2022-11-22T10:59:28.600Z,15.80
2022-11-22T11:02:13.857Z,15.90
2022-11-22T11:04:42.946Z,16.00
2022-11-22T11:07:16.550Z,16.10
2022-11-22T11:10:24.800Z,16.10
2022-11-22T11:13:01.683Z,16.20
2022-11-22T11:15:37.642Z,16.20
2022-11-22T11:18:17.248Z,16.20
2022-11-22T11:20:47.515Z,16.30
2022-11-22T11:23:16.082Z,16.30
2022-11-22T11:25:45.847Z,16.30
2022-11-22T11:28:28.328Z,16.20
2022-11-22T11:31:22.861Z,16.30
2022-11-22T11:33:49.956Z,16.30
2022-11-22T11:36:21.894Z,16.30
2022-11-22T11:38:51.833Z,16.30
2022-11-22T11:41:29.117Z,16.40
2022-11-22T11:43:58.733Z,16.40
2022-11-22T11:46:27.793Z,16.40
2022-11-22T11:49:08.173Z,16.40
2022-11-22T11:51:40.819Z,16.40
2022-11-22T11:54:15.170Z,16.40
2022-11-22T11:56:45.529Z,16.40
2022-11-22T11:59:21.256Z,16.40
2022-11-22T12:02:03.814Z,16.50
2022-11-22T12:04:56.578Z,16.50
2022-11-22T12:07:27.131Z,16.50
2022-11-22T12:09:55.934Z,16.50
2022-11-22T12:12:46.593Z,16.50
2022-11-22T12:15:35.297Z,16.40
2022-11-22T12:18:16.234Z,16.50
2022-11-22T12:21:02.778Z,16.50
2022-11-22T12:23:49.456Z,16.40
2022-11-22T12:26:18.945Z,16.50
2022-11-22T12:28:47.087Z,16.40
2022-11-22T12:31:32.254Z,16.40
2022-11-22T12:34:06.165Z,16.40
2022-11-22T12:36:49.134Z,16.40
2022-11-22T12:39:20.919Z,16.40
2022-11-22T12:41:51.683Z,16.40
2022-11-22T12:44:20.743Z,16.50
2022-11-22T12:46:56.222Z,16.50
2022-11-22T12:49:44.535Z,16.50
2022-11-22T12:52:28.187Z,16.50
2022-11-22T12:54:55.255Z,16.50
2022-11-22T12:58:09.600Z,16.50
2022-11-22T13:00:41.528Z,16.50
2022-11-22T13:03:19.647Z,16.50
2022-11-22T13:05:55.430Z,16.50
2022-11-22T13:08:52.861Z,16.40
2022-11-22T13:11:43.259Z,16.50
2022-11-22T13:14:29.228Z,16.40
2022-11-22T13:16:57.062Z,16.40
2022-11-22T13:19:27.004Z,16.40
2022-11-22T13:22:25.783Z,16.50
2022-11-22T13:24:52.893Z,16.50
2022-11-22T13:27:24.236Z,16.50
2022-11-22T13:29:55.872Z,16.50
2022-11-22T13:32:24.264Z,16.50
2022-11-22T13:35:12.233Z,16.50
2022-11-22T13:37:43.099Z,16.50
2022-11-22T13:40:25.260Z,16.50
2022-11-22T13:43:17.863Z,16.40
2022-11-22T13:45:58.306Z,16.40
2022-11-22T13:48:40.742Z,16.50
2022-11-22T13:51:12.238Z,16.40
2022-11-22T13:53:44.360Z,16.40
2022-11-22T13:56:20.312Z,16.40
2022-11-22T13:58:55.781Z,16.40
2022-11-22T14:01:28.923Z,16.50
2022-11-22T14:04:15.982Z,16.50
2022-11-22T14:06:52.813Z,16.50
2022-11-22T14:09:38.507Z,16.50
2022-11-22T14:12:11.575Z,16.50
2022-11-22T14:15:01.601Z,16.50
2022-11-22T14:18:00.149Z,16.50
2022-11-22T14:20:58.478Z,16.50
2022-11-22T14:23:49.681Z,16.40
2022-11-22T14:26:21.478Z,16.40
2022-11-22T14:29:26.058Z,16.40
2022-11-22T14:31:59.229Z,16.40
2022-11-22T14:34:28.795Z,16.40
2022-11-22T14:37:28.673Z,16.50
2022-11-22T14:40:01.776Z,16.50
2022-11-22T14:42:37.871Z,16.40
2022-11-22T14:45:23.335Z,16.40
2022-11-22T14:47:53.591Z,16.50
2022-11-22T14:50:40.314Z,16.50
2022-11-22T14:53:29.602Z,16.50
2022-11-22T14:56:07.975Z,16.50
2022-11-22T14:58:42.461Z,16.50
2022-11-22T15:01:39.999Z,16.50
2022-11-22T15:09:11.520Z,16.50
2022-11-22T15:09:18.388Z,16.50
2022-11-22T15:10:57.210Z,16.50
2022-11-22T15:13:47.362Z,16.50
2022-11-22T15:59:44.001Z,16.60
2022-11-22T16:02:21.111Z,16.60
2022-11-22T16:06:04.619Z,16.60
2022-11-22T16:07:49.190Z,16.60
2022-11-22T16:10:27.051Z,16.60
2022-11-22T16:12:54.444Z,16.60
2022-11-22T16:15:36.923Z,16.60
2022-11-22T16:18:07.941Z,16.60
2022-11-22T16:20:36.991Z,16.60
2022-11-22T16:23:04.035Z,16.60
2022-11-22T16:25:33.416Z,16.60
2022-11-22T16:28:06.059Z,16.50
2022-11-22T16:30:43.667Z,16.50
2022-11-22T16:33:11.537Z,16.50
2022-11-22T16:35:39.376Z,16.50
2022-11-22T16:38:07.471Z,16.50
2022-11-22T16:50:25.180Z,16.20
2022-11-22T16:52:52.397Z,16.10
2022-11-22T16:55:20.379Z,16.10
2022-11-22T16:57:47.400Z,16.10
2022-11-22T17:00:15.107Z,16.00
2022-11-22T17:02:42.569Z,15.90
2022-11-22T17:05:16.341Z,15.90
2022-11-22T17:07:43.669Z,15.90
2022-11-22T17:10:11.137Z,16.00
2022-11-22T17:12:38.552Z,16.00
2022-11-22T17:15:06.080Z,16.10
2022-11-22T17:17:33.242Z,16.20
2022-11-22T17:20:00.302Z,16.30
2022-11-22T17:22:27.517Z,16.30
2022-11-22T17:24:54.588Z,16.30
2022-11-22T17:27:21.609Z,16.30
2022-11-22T17:29:51.000Z,16.30
2022-11-22T17:32:18.996Z,16.40
2022-11-22T17:34:46.107Z,16.40
2022-11-22T17:37:13.718Z,16.40
2022-11-22T17:39:41.278Z,16.40
2022-11-22T17:42:08.405Z,16.40
2022-11-22T17:44:35.508Z,16.40
2022-11-22T17:47:02.556Z,16.40
2022-11-22T17:49:30.005Z,16.50
2022-11-22T17:51:57.348Z,16.50
2022-11-22T17:54:24.428Z,16.40
2022-11-22T17:56:51.473Z,16.40
2022-11-22T17:59:18.559Z,16.40
2022-11-22T18:01:45.641Z,16.50
2022-11-22T18:04:14.521Z,16.40
2022-11-22T18:06:41.702Z,16.40
2022-11-22T18:09:08.809Z,16.40
2022-11-22T18:11:36.115Z,16.40
2022-11-22T18:14:03.182Z,16.40
2022-11-22T18:16:31.073Z,16.40
2022-11-22T18:18:58.996Z,16.40
2022-11-22T18:21:29.175Z,16.40
2022-11-22T18:23:58.232Z,16.40
2022-11-22T18:26:41.591Z,16.50
2022-11-22T18:31:57.999Z,16.40
2022-11-22T18:34:25.546Z,16.40
2022-11-22T18:39:40.472Z,16.40
2022-11-22T18:42:14.567Z,16.40
2022-11-22T18:44:42.240Z,16.40
2022-11-22T18:47:09.796Z,16.40
2022-11-22T18:49:37.362Z,16.40
2022-11-22T18:52:05.124Z,16.40
2022-11-22T18:54:32.567Z,16.40
2022-11-22T18:56:59.903Z,16.40
2022-11-22T18:59:27.167Z,16.40
2022-11-22T19:01:54.428Z,16.40
2022-11-22T19:04:21.515Z,16.40
2022-11-22T19:06:48.554Z,16.40
2022-11-22T19:09:15.642Z,16.40
2022-11-22T19:11:42.689Z,16.40
2022-11-22T19:14:09.837Z,16.50
2022-11-22T19:16:37.051Z,16.50
2022-11-22T19:19:04.213Z,16.50
2022-11-22T19:21:31.324Z,16.50
2022-11-22T19:23:58.375Z,16.50
2022-11-22T19:26:27.154Z,16.60
2022-11-22T19:28:55.952Z,16.50
2022-11-22T19:31:25.690Z,16.50
2022-11-22T19:33:52.904Z,16.50
2022-11-22T19:36:23.470Z,16.50
2022-11-22T19:38:53.586Z,16.50
2022-11-22T19:41:22.937Z,16.50
2022-11-22T19:43:51.360Z,16.40
2022-11-22T19:46:21.852Z,16.40
2022-11-22T19:48:53.563Z,16.40
2022-11-22T19:51:21.576Z,16.40
2022-11-22T19:53:49.148Z,16.40
2022-11-22T19:56:18.324Z,16.40
2022-11-22T19:58:53.145Z,16.40
2022-11-22T20:01:21.619Z,16.40
2022-11-22T20:03:54.433Z,16.40
2022-11-22T20:06:21.693Z,16.40
2022-11-22T20:08:49.161Z,16.40
2022-11-22T20:11:19.610Z,16.40
2022-11-22T20:13:48.661Z,16.40
2022-11-22T20:16:20.925Z,16.40
2022-11-22T20:18:51.618Z,16.40
2022-11-22T20:21:22.339Z,16.40
2022-11-22T20:23:51.086Z,16.40
2022-11-22T20:26:19.081Z,16.40
2022-11-22T20:28:47.913Z,16.40
2022-11-22T20:31:17.421Z,16.40
2022-11-22T20:33:47.457Z,16.40
2022-11-22T20:36:25.896Z,16.40
2022-11-22T20:38:53.754Z,16.40
2022-11-22T20:41:23.755Z,16.40
2022-11-22T20:43:50.902Z,16.40
2022-11-22T20:46:22.982Z,16.40
2022-11-22T20:48:54.894Z,16.40
2022-11-22T20:51:24.619Z,16.40
2022-11-22T20:53:51.976Z,16.40
2022-11-22T20:56:19.372Z,16.40
2022-11-22T20:58:46.946Z,16.40
2022-11-22T21:01:22.495Z,16.40
2022-11-22T21:03:49.987Z,16.40
2022-11-22T21:06:18.615Z,16.40
2022-11-22T21:08:46.185Z,16.40
2022-11-22T21:11:18.775Z,16.40
2022-11-22T21:13:47.103Z,16.40
2022-11-22T21:16:24.875Z,16.40
2022-11-22T21:19:01.195Z,16.40
2022-11-22T21:21:29.326Z,16.40
2022-11-22T21:23:59.275Z,16.40
2022-11-22T21:26:27.152Z,16.40
2022-11-22T21:28:54.582Z,16.40
2022-11-22T21:31:22.899Z,16.40
2022-11-22T21:33:50.653Z,16.40
2022-11-22T21:36:19.068Z,16.40
2022-11-22T21:38:46.314Z,16.40
2022-11-22T21:44:06.194Z,16.40
2022-11-22T21:46:33.308Z,16.30
2022-11-22T21:49:00.409Z,16.30
2022-11-22T21:51:27.512Z,16.30
2022-11-22T21:53:58.687Z,16.40
2022-11-22T21:56:28.733Z,16.40
2022-11-22T21:58:56.000Z,16.40
2022-11-22T22:01:23.852Z,16.30
2022-11-22T22:03:51.258Z,16.30
2022-11-22T22:06:19.052Z,16.40
2022-11-22T22:08:46.157Z,16.40
2022-11-22T22:11:13.260Z,16.40
2022-11-22T22:13:40.396Z,16.40
2022-11-22T22:16:08.673Z,16.40
2022-11-22T22:18:37.560Z,16.40
2022-11-22T22:21:07.543Z,16.40
2022-11-22T22:23:36.261Z,16.40
2022-11-22T22:26:05.995Z,16.40
2022-11-22T22:28:35.644Z,16.40
2022-11-22T22:31:22.998Z,16.40
2022-11-22T22:33:53.405Z,16.40
2022-11-22T22:36:21.072Z,16.40
2022-11-22T22:38:48.516Z,16.40
2022-11-22T22:41:16.369Z,16.40
2022-11-22T22:43:46.184Z,16.40
2022-11-22T22:46:18.058Z,16.40
2022-11-22T22:48:45.695Z,16.40
2022-11-22T22:51:16.748Z,16.40
2022-11-22T22:53:44.604Z,16.40
2022-11-22T22:56:12.634Z,16.40
2022-11-22T22:58:40.166Z,16.40
2022-11-22T23:01:27.819Z,16.40
2022-11-22T23:03:57.571Z,16.40
2022-11-22T23:06:29.798Z,16.40
2022-11-22T23:08:57.621Z,16.40
2022-11-22T23:11:48.865Z,16.40
2022-11-22T23:14:18.334Z,16.40
2022-11-22T23:16:45.594Z,16.40
2022-11-22T23:19:12.802Z,16.40
2022-11-22T23:21:39.975Z,16.40
2022-11-22T23:24:08.002Z,16.40
2022-11-22T23:26:35.314Z,16.40
2022-11-22T23:29:02.486Z,16.40
2022-11-22T23:31:29.697Z,16.40
2022-11-22T23:33:58.975Z,16.40
2022-11-22T23:36:26.023Z,16.40
2022-11-22T23:38:53.142Z,16.40
2022-11-22T23:41:22.574Z,16.40
2022-11-22T23:43:55.043Z,16.40
2022-11-22T23:46:24.846Z,16.40
2022-11-22T23:48:59.799Z,16.30
2022-11-22T23:51:28.756Z,16.30
2022-11-22T23:54:01.566Z,16.40
2022-11-22T23:56:30.594Z,16.30
2022-11-22T23:59:01.692Z,16.30
